sensor_id;sensor_type;location;lat;lon;timestamp;temperature;humidity
67820;DHT22;54618;52.018;5.576;2022-12-29T00:02:13;17.90;51.20
67820;DHT22;54618;52.018;5.576;2022-12-29T00:04:38;17.90;51.20
67820;DHT22;54618;52.018;5.576;2022-12-29T00:07:05;17.80;51.20
67820;DHT22;54618;52.018;5.576;2022-12-29T00:09:31;17.90;51.30
67820;DHT22;54618;52.018;5.576;2022-12-29T00:11:57;17.80;51.20
67820;DHT22;54618;52.018;5.576;2022-12-29T00:14:23;17.80;51.20
67820;DHT22;54618;52.018;5.576;2022-12-29T00:17:08;17.80;51.30
67820;DHT22;54618;52.018;5.576;2022-12-29T00:19:33;17.80;51.30
67820;DHT22;54618;52.018;5.576;2022-12-29T00:22:18;17.80;51.30
67820;DHT22;54618;52.018;5.576;2022-12-29T00:25:03;17.80;51.30
67820;DHT22;54618;52.018;5.576;2022-12-29T00:27:34;17.80;51.30
67820;DHT22;54618;52.018;5.576;2022-12-29T00:30:23;17.80;51.30
67820;DHT22;54618;52.018;5.576;2022-12-29T00:33:21;17.80;51.40
67820;DHT22;54618;52.018;5.576;2022-12-29T00:36:10;17.80;51.60
67820;DHT22;54618;52.018;5.576;2022-12-29T00:38:39;17.70;51.30
67820;DHT22;54618;52.018;5.576;2022-12-29T00:41:25;17.70;51.30
67820;DHT22;54618;52.018;5.576;2022-12-29T00:44:10;17.70;51.30
67820;DHT22;54618;52.018;5.576;2022-12-29T00:46:38;17.70;51.30
67820;DHT22;54618;52.018;5.576;2022-12-29T00:49:05;17.70;51.30
67820;DHT22;54618;52.018;5.576;2022-12-29T00:51:50;17.70;51.40
67820;DHT22;54618;52.018;5.576;2022-12-29T00:54:17;17.70;51.30
67820;DHT22;54618;52.018;5.576;2022-12-29T00:56:42;17.70;51.30
67820;DHT22;54618;52.018;5.576;2022-12-29T00:59:10;17.70;51.20
67820;DHT22;54618;52.018;5.576;2022-12-29T01:01:37;17.70;51.30
67820;DHT22;54618;52.018;5.576;2022-12-29T01:04:03;17.80;51.40
67820;DHT22;54618;52.018;5.576;2022-12-29T01:06:29;17.80;51.40
67820;DHT22;54618;52.018;5.576;2022-12-29T01:08:54;17.80;51.40
67820;DHT22;54618;52.018;5.576;2022-12-29T01:11:39;17.70;51.40
67820;DHT22;54618;52.018;5.576;2022-12-29T01:14:05;17.80;51.40
67820;DHT22;54618;52.018;5.576;2022-12-29T01:16:31;17.80;51.40
67820;DHT22;54618;52.018;5.576;2022-12-29T01:18:56;17.70;51.40
67820;DHT22;54618;52.018;5.576;2022-12-29T01:21:22;17.70;51.50
67820;DHT22;54618;52.018;5.576;2022-12-29T01:23:47;17.70;51.50
67820;DHT22;54618;52.018;5.576;2022-12-29T01:26:14;17.70;51.60
67820;DHT22;54618;52.018;5.576;2022-12-29T01:28:41;17.70;51.60
67820;DHT22;54618;52.018;5.576;2022-12-29T01:31:08;17.70;51.70
67820;DHT22;54618;52.018;5.576;2022-12-29T01:33:33;17.70;51.70
67820;DHT22;54618;52.018;5.576;2022-12-29T01:36:03;17.60;51.60
67820;DHT22;54618;52.018;5.576;2022-12-29T01:38:30;17.70;51.70
67820;DHT22;54618;52.018;5.576;2022-12-29T01:40:55;17.60;51.70
67820;DHT22;54618;52.018;5.576;2022-12-29T01:43:21;17.60;51.70
67820;DHT22;54618;52.018;5.576;2022-12-29T01:45:51;17.60;51.70
67820;DHT22;54618;52.018;5.576;2022-12-29T01:48:19;17.60;51.70
67820;DHT22;54618;52.018;5.576;2022-12-29T01:50:50;17.60;51.70
67820;DHT22;54618;52.018;5.576;2022-12-29T01:53:22;17.60;51.80
67820;DHT22;54618;52.018;5.576;2022-12-29T01:55:55;17.60;51.70
67820;DHT22;54618;52.018;5.576;2022-12-29T01:58:23;17.60;51.80
67820;DHT22;54618;52.018;5.576;2022-12-29T02:00:49;17.60;51.70
67820;DHT22;54618;52.018;5.576;2022-12-29T02:03:17;17.60;51.80
67820;DHT22;54618;52.018;5.576;2022-12-29T02:05:52;17.60;51.80
67820;DHT22;54618;52.018;5.576;2022-12-29T02:08:22;17.50;51.70
67820;DHT22;54618;52.018;5.576;2022-12-29T02:10:49;17.50;51.80
67820;DHT22;54618;52.018;5.576;2022-12-29T02:13:17;17.50;51.70
67820;DHT22;54618;52.018;5.576;2022-12-29T02:16:21;17.50;51.70
67820;DHT22;54618;52.018;5.576;2022-12-29T02:19:13;17.50;52.10
67820;DHT22;54618;52.018;5.576;2022-12-29T02:22:06;17.50;51.90
67820;DHT22;54618;52.018;5.576;2022-12-29T02:27:44;17.50;51.80
67820;DHT22;54618;52.018;5.576;2022-12-29T02:33:49;17.50;51.80
67820;DHT22;54618;52.018;5.576;2022-12-29T02:38:45;17.40;51.80
67820;DHT22;54618;52.018;5.576;2022-12-29T02:41:33;17.40;52.00
67820;DHT22;54618;52.018;5.576;2022-12-29T02:44:16;17.40;51.80
67820;DHT22;54618;52.018;5.576;2022-12-29T02:46:48;17.40;51.80
67820;DHT22;54618;52.018;5.576;2022-12-29T02:52:06;17.40;51.90
67820;DHT22;54618;52.018;5.576;2022-12-29T02:54:32;17.40;51.80
67820;DHT22;54618;52.018;5.576;2022-12-29T03:00:09;17.40;51.90
67820;DHT22;54618;52.018;5.576;2022-12-29T03:05:56;17.30;51.90
67820;DHT22;54618;52.018;5.576;2022-12-29T03:08:26;17.40;51.80
67820;DHT22;54618;52.018;5.576;2022-12-29T03:11:03;17.70;51.70
67820;DHT22;54618;52.018;5.576;2022-12-29T03:13:49;17.90;51.40
67820;DHT22;54618;52.018;5.576;2022-12-29T03:16:48;18.10;51.00
67820;DHT22;54618;52.018;5.576;2022-12-29T03:19:30;18.30;50.90
67820;DHT22;54618;52.018;5.576;2022-12-29T03:22:03;18.40;50.50
67820;DHT22;54618;52.018;5.576;2022-12-29T03:24:50;18.30;50.40
67820;DHT22;54618;52.018;5.576;2022-12-29T03:27:21;18.30;50.40
67820;DHT22;54618;52.018;5.576;2022-12-29T03:29:54;18.40;50.50
67820;DHT22;54618;52.018;5.576;2022-12-29T03:32:22;18.40;50.40
67820;DHT22;54618;52.018;5.576;2022-12-29T03:34:50;18.50;50.40
67820;DHT22;54618;52.018;5.576;2022-12-29T03:37:20;18.50;50.30
67820;DHT22;54618;52.018;5.576;2022-12-29T03:39:47;18.50;50.20
67820;DHT22;54618;52.018;5.576;2022-12-29T03:42:16;18.50;50.20
67820;DHT22;54618;52.018;5.576;2022-12-29T03:44:44;18.50;50.10
67820;DHT22;54618;52.018;5.576;2022-12-29T03:47:11;18.50;50.20
67820;DHT22;54618;52.018;5.576;2022-12-29T03:49:38;18.50;50.20
67820;DHT22;54618;52.018;5.576;2022-12-29T03:52:04;18.50;50.30
67820;DHT22;54618;52.018;5.576;2022-12-29T03:54:30;18.50;50.30
67820;DHT22;54618;52.018;5.576;2022-12-29T03:56:56;18.50;50.20
67820;DHT22;54618;52.018;5.576;2022-12-29T03:59:22;18.50;50.30
67820;DHT22;54618;52.018;5.576;2022-12-29T04:01:47;18.50;50.30
67820;DHT22;54618;52.018;5.576;2022-12-29T04:04:13;18.40;50.30
67820;DHT22;54618;52.018;5.576;2022-12-29T04:06:38;18.40;50.30
67820;DHT22;54618;52.018;5.576;2022-12-29T04:09:04;18.40;50.30
67820;DHT22;54618;52.018;5.576;2022-12-29T04:11:30;18.40;50.30
67820;DHT22;54618;52.018;5.576;2022-12-29T04:13:55;18.40;50.30
67820;DHT22;54618;52.018;5.576;2022-12-29T04:16:21;18.40;50.30
67820;DHT22;54618;52.018;5.576;2022-12-29T04:18:46;18.40;50.30
67820;DHT22;54618;52.018;5.576;2022-12-29T04:21:12;18.40;50.30
67820;DHT22;54618;52.018;5.576;2022-12-29T04:23:38;18.40;50.30
67820;DHT22;54618;52.018;5.576;2022-12-29T04:26:05;18.40;50.30
67820;DHT22;54618;52.018;5.576;2022-12-29T04:28:35;18.40;50.30
67820;DHT22;54618;52.018;5.576;2022-12-29T04:31:00;18.40;50.30
67820;DHT22;54618;52.018;5.576;2022-12-29T04:33:26;18.40;50.30
67820;DHT22;54618;52.018;5.576;2022-12-29T04:35:52;18.40;50.30
67820;DHT22;54618;52.018;5.576;2022-12-29T04:38:22;18.40;50.30
67820;DHT22;54618;52.018;5.576;2022-12-29T04:40:48;18.40;50.20
67820;DHT22;54618;52.018;5.576;2022-12-29T04:43:14;18.40;50.20
67820;DHT22;54618;52.018;5.576;2022-12-29T04:45:46;18.40;50.30
67820;DHT22;54618;52.018;5.576;2022-12-29T04:48:12;18.40;50.20
67820;DHT22;54618;52.018;5.576;2022-12-29T04:50:38;18.40;50.20
67820;DHT22;54618;52.018;5.576;2022-12-29T04:53:04;18.40;50.30
67820;DHT22;54618;52.018;5.576;2022-12-29T04:55:30;18.40;50.30
67820;DHT22;54618;52.018;5.576;2022-12-29T04:57:55;18.40;50.30
67820;DHT22;54618;52.018;5.576;2022-12-29T05:00:21;18.40;50.20
67820;DHT22;54618;52.018;5.576;2022-12-29T05:02:47;18.40;50.20
67820;DHT22;54618;52.018;5.576;2022-12-29T05:05:12;18.40;50.20
67820;DHT22;54618;52.018;5.576;2022-12-29T05:07:38;18.40;50.20
67820;DHT22;54618;52.018;5.576;2022-12-29T05:10:04;18.40;50.20
67820;DHT22;54618;52.018;5.576;2022-12-29T05:12:31;18.40;50.30
67820;DHT22;54618;52.018;5.576;2022-12-29T05:14:57;18.40;50.20
67820;DHT22;54618;52.018;5.576;2022-12-29T05:17:22;18.40;50.20
67820;DHT22;54618;52.018;5.576;2022-12-29T05:19:48;18.40;50.20
67820;DHT22;54618;52.018;5.576;2022-12-29T05:22:13;18.40;50.10
67820;DHT22;54618;52.018;5.576;2022-12-29T05:24:39;18.40;50.10
67820;DHT22;54618;52.018;5.576;2022-12-29T05:27:05;18.40;50.10
67820;DHT22;54618;52.018;5.576;2022-12-29T05:29:31;18.40;50.10
67820;DHT22;54618;52.018;5.576;2022-12-29T05:31:56;18.40;50.10
67820;DHT22;54618;52.018;5.576;2022-12-29T05:34:22;18.40;50.10
67820;DHT22;54618;52.018;5.576;2022-12-29T05:36:47;18.40;50.10
67820;DHT22;54618;52.018;5.576;2022-12-29T05:39:13;18.40;50.10
67820;DHT22;54618;52.018;5.576;2022-12-29T05:41:38;18.40;50.10
67820;DHT22;54618;52.018;5.576;2022-12-29T05:44:04;18.40;50.10
67820;DHT22;54618;52.018;5.576;2022-12-29T05:46:29;18.40;50.10
67820;DHT22;54618;52.018;5.576;2022-12-29T05:48:55;18.40;50.10
67820;DHT22;54618;52.018;5.576;2022-12-29T05:51:20;18.40;50.10
67820;DHT22;54618;52.018;5.576;2022-12-29T05:53:46;18.40;50.10
67820;DHT22;54618;52.018;5.576;2022-12-29T05:56:12;18.40;50.10
67820;DHT22;54618;52.018;5.576;2022-12-29T05:58:37;18.40;50.10
67820;DHT22;54618;52.018;5.576;2022-12-29T06:01:03;18.40;50.10
67820;DHT22;54618;52.018;5.576;2022-12-29T06:03:28;18.40;50.10
67820;DHT22;54618;52.018;5.576;2022-12-29T06:05:54;18.40;50.70
67820;DHT22;54618;52.018;5.576;2022-12-29T06:08:19;18.40;50.00
67820;DHT22;54618;52.018;5.576;2022-12-29T06:10:45;18.40;50.00
67820;DHT22;54618;52.018;5.576;2022-12-29T06:13:10;18.40;50.00
67820;DHT22;54618;52.018;5.576;2022-12-29T06:15:37;18.40;50.10
67820;DHT22;54618;52.018;5.576;2022-12-29T06:18:02;18.40;50.00
67820;DHT22;54618;52.018;5.576;2022-12-29T06:20:28;18.30;50.00
67820;DHT22;54618;52.018;5.576;2022-12-29T06:22:54;18.20;50.00
67820;DHT22;54618;52.018;5.576;2022-12-29T06:25:19;18.20;50.20
67820;DHT22;54618;52.018;5.576;2022-12-29T06:27:45;18.10;50.30
67820;DHT22;54618;52.018;5.576;2022-12-29T06:30:11;18.00;50.40
67820;DHT22;54618;52.018;5.576;2022-12-29T06:32:37;17.90;50.50
67820;DHT22;54618;52.018;5.576;2022-12-29T06:35:04;17.80;50.60
67820;DHT22;54618;52.018;5.576;2022-12-29T06:37:30;17.90;50.80
67820;DHT22;54618;52.018;5.576;2022-12-29T06:39:55;18.40;50.60
67820;DHT22;54618;52.018;5.576;2022-12-29T06:42:21;19.00;49.80
67820;DHT22;54618;52.018;5.576;2022-12-29T06:44:46;19.60;49.00
67820;DHT22;54618;52.018;5.576;2022-12-29T06:47:12;20.00;48.40
67820;DHT22;54618;52.018;5.576;2022-12-29T06:49:37;20.40;47.80
67820;DHT22;54618;52.018;5.576;2022-12-29T06:52:03;20.70;47.40
67820;DHT22;54618;52.018;5.576;2022-12-29T06:54:30;20.90;47.10
67820;DHT22;54618;52.018;5.576;2022-12-29T06:56:56;21.00;46.80
67820;DHT22;54618;52.018;5.576;2022-12-29T06:59:22;21.20;46.70
67820;DHT22;54618;52.018;5.576;2022-12-29T07:01:47;21.30;46.60
67820;DHT22;54618;52.018;5.576;2022-12-29T07:04:13;21.40;46.40
67820;DHT22;54618;52.018;5.576;2022-12-29T07:06:38;21.50;46.40
67820;DHT22;54618;52.018;5.576;2022-12-29T07:09:06;21.60;46.30
67820;DHT22;54618;52.018;5.576;2022-12-29T07:11:32;21.70;46.40
67820;DHT22;54618;52.018;5.576;2022-12-29T07:13:58;21.70;46.30
67820;DHT22;54618;52.018;5.576;2022-12-29T07:16:24;21.80;46.40
67820;DHT22;54618;52.018;5.576;2022-12-29T07:18:49;21.80;46.50
67820;DHT22;54618;52.018;5.576;2022-12-29T07:21:15;21.80;46.50
67820;DHT22;54618;52.018;5.576;2022-12-29T07:23:41;21.80;46.50
67820;DHT22;54618;52.018;5.576;2022-12-29T07:26:08;21.80;46.60
67820;DHT22;54618;52.018;5.576;2022-12-29T07:28:35;21.80;46.60
67820;DHT22;54618;52.018;5.576;2022-12-29T07:31:01;21.90;46.50
67820;DHT22;54618;52.018;5.576;2022-12-29T07:33:28;21.90;46.60
67820;DHT22;54618;52.018;5.576;2022-12-29T07:35:54;21.90;46.40
67820;DHT22;54618;52.018;5.576;2022-12-29T07:38:20;21.90;46.50
67820;DHT22;54618;52.018;5.576;2022-12-29T07:40:45;22.00;47.20
67820;DHT22;54618;52.018;5.576;2022-12-29T07:43:11;22.00;46.40
67820;DHT22;54618;52.018;5.576;2022-12-29T07:45:37;22.00;46.50
67820;DHT22;54618;52.018;5.576;2022-12-29T07:48:03;22.00;46.40
67820;DHT22;54618;52.018;5.576;2022-12-29T07:50:29;22.00;46.40
67820;DHT22;54618;52.018;5.576;2022-12-29T07:52:55;22.00;46.40
67820;DHT22;54618;52.018;5.576;2022-12-29T07:55:20;22.00;46.40
67820;DHT22;54618;52.018;5.576;2022-12-29T07:57:46;22.00;46.30
67820;DHT22;54618;52.018;5.576;2022-12-29T08:00:12;22.10;46.30
67820;DHT22;54618;52.018;5.576;2022-12-29T08:02:37;22.10;46.30
67820;DHT22;54618;52.018;5.576;2022-12-29T08:05:03;22.10;46.30
67820;DHT22;54618;52.018;5.576;2022-12-29T08:07:29;22.10;46.30
67820;DHT22;54618;52.018;5.576;2022-12-29T08:09:54;22.10;46.30
67820;DHT22;54618;52.018;5.576;2022-12-29T08:12:20;22.10;46.40
67820;DHT22;54618;52.018;5.576;2022-12-29T08:14:45;22.10;46.40
67820;DHT22;54618;52.018;5.576;2022-12-29T08:17:11;22.10;46.20
67820;DHT22;54618;52.018;5.576;2022-12-29T08:19:37;22.10;46.80
67820;DHT22;54618;52.018;5.576;2022-12-29T08:22:03;22.10;46.30
67820;DHT22;54618;52.018;5.576;2022-12-29T08:24:28;22.10;46.20
67820;DHT22;54618;52.018;5.576;2022-12-29T08:26:54;22.10;46.20
67820;DHT22;54618;52.018;5.576;2022-12-29T08:29:20;22.10;46.10
67820;DHT22;54618;52.018;5.576;2022-12-29T08:31:47;22.10;46.40
67820;DHT22;54618;52.018;5.576;2022-12-29T08:34:13;22.20;46.60
67820;DHT22;54618;52.018;5.576;2022-12-29T08:36:38;22.10;46.60
67820;DHT22;54618;52.018;5.576;2022-12-29T08:39:04;21.90;46.80
67820;DHT22;54618;52.018;5.576;2022-12-29T08:41:30;21.80;47.00
67820;DHT22;54618;52.018;5.576;2022-12-29T08:43:56;21.80;47.10
67820;DHT22;54618;52.018;5.576;2022-12-29T08:46:21;21.80;47.10
67820;DHT22;54618;52.018;5.576;2022-12-29T08:48:47;21.80;47.00
67820;DHT22;54618;52.018;5.576;2022-12-29T08:51:12;21.80;47.20
67820;DHT22;54618;52.018;5.576;2022-12-29T08:53:38;21.90;47.20
67820;DHT22;54618;52.018;5.576;2022-12-29T08:56:04;21.90;47.20
67820;DHT22;54618;52.018;5.576;2022-12-29T08:58:30;21.90;47.20
67820;DHT22;54618;52.018;5.576;2022-12-29T09:00:57;21.90;47.20
67820;DHT22;54618;52.018;5.576;2022-12-29T09:03:23;21.90;47.10
67820;DHT22;54618;52.018;5.576;2022-12-29T09:05:53;22.00;47.10
67820;DHT22;54618;52.018;5.576;2022-12-29T09:08:19;22.00;47.00
67820;DHT22;54618;52.018;5.576;2022-12-29T09:10:45;22.00;47.00
67820;DHT22;54618;52.018;5.576;2022-12-29T09:13:12;22.00;47.00
67820;DHT22;54618;52.018;5.576;2022-12-29T09:15:38;22.00;47.10
67820;DHT22;54618;52.018;5.576;2022-12-29T09:18:04;21.90;47.00
67820;DHT22;54618;52.018;5.576;2022-12-29T09:20:29;21.80;47.20
67820;DHT22;54618;52.018;5.576;2022-12-29T09:22:55;21.50;47.90
67820;DHT22;54618;52.018;5.576;2022-12-29T09:25:21;21.20;47.80
67820;DHT22;54618;52.018;5.576;2022-12-29T09:27:50;21.10;48.20
67820;DHT22;54618;52.018;5.576;2022-12-29T09:30:18;21.00;48.40
67820;DHT22;54618;52.018;5.576;2022-12-29T09:32:44;21.00;48.30
67820;DHT22;54618;52.018;5.576;2022-12-29T09:35:09;20.80;48.30
67820;DHT22;54618;52.018;5.576;2022-12-29T09:37:35;20.70;48.40
67820;DHT22;54618;52.018;5.576;2022-12-29T09:40:01;20.80;48.60
67820;DHT22;54618;52.018;5.576;2022-12-29T09:42:38;20.90;48.40
67820;DHT22;54618;52.018;5.576;2022-12-29T09:45:45;21.10;48.00
67820;DHT22;54618;52.018;5.576;2022-12-29T09:48:20;21.40;47.60
67820;DHT22;54618;52.018;5.576;2022-12-29T09:50:51;21.50;47.40
67820;DHT22;54618;52.018;5.576;2022-12-29T09:53:28;21.60;47.40
67820;DHT22;54618;52.018;5.576;2022-12-29T09:55:58;21.70;47.20
67820;DHT22;54618;52.018;5.576;2022-12-29T09:58:36;21.70;47.20
67820;DHT22;54618;52.018;5.576;2022-12-29T10:01:06;21.50;47.30
67820;DHT22;54618;52.018;5.576;2022-12-29T10:06:40;21.10;48.00
67820;DHT22;54618;52.018;5.576;2022-12-29T10:09:29;20.80;48.20
67820;DHT22;54618;52.018;5.576;2022-12-29T10:25:43;20.20;50.20
67820;DHT22;54618;52.018;5.576;2022-12-29T10:30:47;21.80;51.60
67820;DHT22;54618;52.018;5.576;2022-12-29T10:33:17;22.30;52.30
67820;DHT22;54618;52.018;5.576;2022-12-29T10:35:44;22.90;52.50
67820;DHT22;54618;52.018;5.576;2022-12-29T10:38:45;23.50;53.40
67820;DHT22;54618;52.018;5.576;2022-12-29T10:41:16;24.00;52.30
67820;DHT22;54618;52.018;5.576;2022-12-29T10:43:51;24.50;52.70
67820;DHT22;54618;52.018;5.576;2022-12-29T10:46:25;24.80;52.40
67820;DHT22;54618;52.018;5.576;2022-12-29T10:48:52;25.10;52.90
67820;DHT22;54618;52.018;5.576;2022-12-29T10:51:24;25.30;52.80
67820;DHT22;54618;52.018;5.576;2022-12-29T10:53:59;25.40;51.90
67820;DHT22;54618;52.018;5.576;2022-12-29T10:56:40;25.50;51.70
67820;DHT22;54618;52.018;5.576;2022-12-29T10:59:19;25.80;50.80
67820;DHT22;54618;52.018;5.576;2022-12-29T11:01:54;26.00;52.20
67820;DHT22;54618;52.018;5.576;2022-12-29T11:06:59;26.40;52.10
67820;DHT22;54618;52.018;5.576;2022-12-29T11:09:31;26.80;53.20
67820;DHT22;54618;52.018;5.576;2022-12-29T11:11:57;26.90;52.30
67820;DHT22;54618;52.018;5.576;2022-12-29T11:14:29;27.00;52.60
67820;DHT22;54618;52.018;5.576;2022-12-29T11:17:00;27.30;51.90
67820;DHT22;54618;52.018;5.576;2022-12-29T11:19:31;27.60;52.10
67820;DHT22;54618;52.018;5.576;2022-12-29T11:22:21;27.70;52.40
67820;DHT22;54618;52.018;5.576;2022-12-29T11:24:48;27.80;49.20
67820;DHT22;54618;52.018;5.576;2022-12-29T11:27:17;27.80;51.70
67820;DHT22;54618;52.018;5.576;2022-12-29T11:29:43;28.00;51.40
67820;DHT22;54618;52.018;5.576;2022-12-29T11:32:19;28.10;51.40
67820;DHT22;54618;52.018;5.576;2022-12-29T11:34:45;28.10;49.60
67820;DHT22;54618;52.018;5.576;2022-12-29T11:37:27;28.10;50.40
67820;DHT22;54618;52.018;5.576;2022-12-29T11:40:05;28.10;50.00
67820;DHT22;54618;52.018;5.576;2022-12-29T11:42:40;28.10;48.40
67820;DHT22;54618;52.018;5.576;2022-12-29T11:45:16;27.90;48.90
67820;DHT22;54618;52.018;5.576;2022-12-29T11:47:46;27.80;47.90
67820;DHT22;54618;52.018;5.576;2022-12-29T11:50:28;27.70;48.50
67820;DHT22;54618;52.018;5.576;2022-12-29T11:53:05;27.50;47.00
67820;DHT22;54618;52.018;5.576;2022-12-29T11:55:32;27.40;46.70
67820;DHT22;54618;52.018;5.576;2022-12-29T11:58:01;27.30;47.80
67820;DHT22;54618;52.018;5.576;2022-12-29T12:00:30;27.30;47.50
67820;DHT22;54618;52.018;5.576;2022-12-29T12:05:41;27.20;46.70
67820;DHT22;54618;52.018;5.576;2022-12-29T12:10:43;27.30;47.10
67820;DHT22;54618;52.018;5.576;2022-12-29T12:16:16;27.30;45.50
67820;DHT22;54618;52.018;5.576;2022-12-29T12:18:53;27.40;47.00
67820;DHT22;54618;52.018;5.576;2022-12-29T12:21:40;27.50;46.00
67820;DHT22;54618;52.018;5.576;2022-12-29T12:27:08;27.50;46.00
67820;DHT22;54618;52.018;5.576;2022-12-29T12:29:57;27.60;46.00
67820;DHT22;54618;52.018;5.576;2022-12-29T12:32:30;27.60;45.20
67820;DHT22;54618;52.018;5.576;2022-12-29T12:35:03;27.50;45.70
67820;DHT22;54618;52.018;5.576;2022-12-29T12:37:43;27.50;46.00
67820;DHT22;54618;52.018;5.576;2022-12-29T12:40:36;27.60;44.90
67820;DHT22;54618;52.018;5.576;2022-12-29T13:05:29;27.30;43.30
67820;DHT22;54618;52.018;5.576;2022-12-29T13:10:54;27.30;43.70
67820;DHT22;54618;52.018;5.576;2022-12-29T13:21:47;27.20;43.30
67820;DHT22;54618;52.018;5.576;2022-12-29T13:24:31;27.10;42.80
67820;DHT22;54618;52.018;5.576;2022-12-29T13:29:35;27.30;44.00
67820;DHT22;54618;52.018;5.576;2022-12-29T13:32:48;27.40;43.60
67820;DHT22;54618;52.018;5.576;2022-12-29T13:38:15;27.40;43.80
67820;DHT22;54618;52.018;5.576;2022-12-29T13:40:46;27.40;42.70
67820;DHT22;54618;52.018;5.576;2022-12-29T13:43:16;27.40;43.20
67820;DHT22;54618;52.018;5.576;2022-12-29T13:45:42;27.30;43.10
67820;DHT22;54618;52.018;5.576;2022-12-29T13:48:16;27.40;43.20
67820;DHT22;54618;52.018;5.576;2022-12-29T13:50:49;27.40;43.00
67820;DHT22;54618;52.018;5.576;2022-12-29T13:53:22;27.30;42.60
67820;DHT22;54618;52.018;5.576;2022-12-29T13:58:37;27.30;42.30
67820;DHT22;54618;52.018;5.576;2022-12-29T14:06:15;28.40;41.20
67820;DHT22;54618;52.018;5.576;2022-12-29T14:08:43;29.10;40.70
67820;DHT22;54618;52.018;5.576;2022-12-29T14:11:10;29.60;40.20
67820;DHT22;54618;52.018;5.576;2022-12-29T14:13:39;29.80;39.60
67820;DHT22;54618;52.018;5.576;2022-12-29T14:16:06;29.90;40.20
67820;DHT22;54618;52.018;5.576;2022-12-29T14:18:33;29.60;40.20
67820;DHT22;54618;52.018;5.576;2022-12-29T14:21:18;29.20;40.20
67820;DHT22;54618;52.018;5.576;2022-12-29T14:23:46;28.70;39.60
67820;DHT22;54618;52.018;5.576;2022-12-29T14:26:34;28.40;40.50
67820;DHT22;54618;52.018;5.576;2022-12-29T14:42:32;27.20;38.80
67820;DHT22;54618;52.018;5.576;2022-12-29T14:45:02;26.90;38.80
67820;DHT22;54618;52.018;5.576;2022-12-29T14:50:04;26.50;38.70
67820;DHT22;54618;52.018;5.576;2022-12-29T14:52:31;26.20;38.60
67820;DHT22;54618;52.018;5.576;2022-12-29T14:54:59;26.10;38.60
67820;DHT22;54618;52.018;5.576;2022-12-29T14:57:48;25.80;38.40
67820;DHT22;54618;52.018;5.576;2022-12-29T15:02:49;25.60;38.20
67820;DHT22;54618;52.018;5.576;2022-12-29T15:05:46;25.70;38.00
67820;DHT22;54618;52.018;5.576;2022-12-29T15:08:18;25.70;37.90
67820;DHT22;54618;52.018;5.576;2022-12-29T15:11:01;25.70;37.60
67820;DHT22;54618;52.018;5.576;2022-12-29T15:13:40;25.70;37.60
67820;DHT22;54618;52.018;5.576;2022-12-29T15:16:31;25.60;37.50
67820;DHT22;54618;52.018;5.576;2022-12-29T15:18:58;25.60;37.50
67820;DHT22;54618;52.018;5.576;2022-12-29T15:21:35;25.50;37.50
67820;DHT22;54618;52.018;5.576;2022-12-29T15:24:02;25.40;37.40
67820;DHT22;54618;52.018;5.576;2022-12-29T15:26:44;25.30;37.30
67820;DHT22;54618;52.018;5.576;2022-12-29T15:29:30;25.30;37.40
67820;DHT22;54618;52.018;5.576;2022-12-29T15:31:58;25.20;37.60
67820;DHT22;54618;52.018;5.576;2022-12-29T15:34:25;25.20;37.40
67820;DHT22;54618;52.018;5.576;2022-12-29T15:36:54;25.10;38.00
67820;DHT22;54618;52.018;5.576;2022-12-29T15:39:26;25.00;37.40
67820;DHT22;54618;52.018;5.576;2022-12-29T15:42:09;25.00;37.50
67820;DHT22;54618;52.018;5.576;2022-12-29T15:44:41;24.90;37.50
67820;DHT22;54618;52.018;5.576;2022-12-29T15:47:29;24.90;37.50
67820;DHT22;54618;52.018;5.576;2022-12-29T15:50:23;24.90;37.70
67820;DHT22;54618;52.018;5.576;2022-12-29T15:52:47;24.90;37.70
67820;DHT22;54618;52.018;5.576;2022-12-29T15:55:26;24.80;37.60
67820;DHT22;54618;52.018;5.576;2022-12-29T15:57:57;24.80;37.80
67820;DHT22;54618;52.018;5.576;2022-12-29T16:00:34;24.80;37.80
67820;DHT22;54618;52.018;5.576;2022-12-29T16:03:04;24.70;37.80
67820;DHT22;54618;52.018;5.576;2022-12-29T16:05:35;24.70;37.70
67820;DHT22;54618;52.018;5.576;2022-12-29T16:08:02;24.70;37.80
67820;DHT22;54618;52.018;5.576;2022-12-29T16:10:35;24.70;37.90
67820;DHT22;54618;52.018;5.576;2022-12-29T16:13:12;24.70;38.00
67820;DHT22;54618;52.018;5.576;2022-12-29T16:15:45;24.70;38.10
67820;DHT22;54618;52.018;5.576;2022-12-29T16:18:27;24.70;38.00
67820;DHT22;54618;52.018;5.576;2022-12-29T16:20:55;24.60;38.10
67820;DHT22;54618;52.018;5.576;2022-12-29T16:23:27;24.60;38.10
67820;DHT22;54618;52.018;5.576;2022-12-29T16:25:54;24.60;38.10
67820;DHT22;54618;52.018;5.576;2022-12-29T16:28:25;24.60;38.10
67820;DHT22;54618;52.018;5.576;2022-12-29T16:31:03;24.60;38.10
67820;DHT22;54618;52.018;5.576;2022-12-29T16:33:39;24.60;38.20
67820;DHT22;54618;52.018;5.576;2022-12-29T16:36:32;24.60;38.30
67820;DHT22;54618;52.018;5.576;2022-12-29T16:42:45;24.40;38.40
67820;DHT22;54618;52.018;5.576;2022-12-29T16:48:09;24.50;38.70
67820;DHT22;54618;52.018;5.576;2022-12-29T16:50:40;24.40;38.60
67820;DHT22;54618;52.018;5.576;2022-12-29T16:53:36;24.30;38.80
67820;DHT22;54618;52.018;5.576;2022-12-29T16:56:12;24.10;39.40
67820;DHT22;54618;52.018;5.576;2022-12-29T16:58:38;23.90;39.50
67820;DHT22;54618;52.018;5.576;2022-12-29T17:01:06;23.80;39.60
67820;DHT22;54618;52.018;5.576;2022-12-29T17:03:43;23.50;39.90
67820;DHT22;54618;52.018;5.576;2022-12-29T17:06:15;23.30;40.30
67820;DHT22;54618;52.018;5.576;2022-12-29T17:08:42;23.10;40.80
67820;DHT22;54618;52.018;5.576;2022-12-29T17:11:26;22.80;41.00
67820;DHT22;54618;52.018;5.576;2022-12-29T17:14:27;22.60;41.80
67820;DHT22;54618;52.018;5.576;2022-12-29T17:16:54;22.40;42.20
67820;DHT22;54618;52.018;5.576;2022-12-29T17:19:32;22.30;42.10
67820;DHT22;54618;52.018;5.576;2022-12-29T17:21:58;22.10;42.90
67820;DHT22;54618;52.018;5.576;2022-12-29T17:24:23;22.00;42.60
67820;DHT22;54618;52.018;5.576;2022-12-29T17:26:52;21.90;42.70
67820;DHT22;54618;52.018;5.576;2022-12-29T17:29:39;21.80;43.00
67820;DHT22;54618;52.018;5.576;2022-12-29T17:32:09;21.70;44.10
67820;DHT22;54618;52.018;5.576;2022-12-29T17:34:37;21.60;43.30
67820;DHT22;54618;52.018;5.576;2022-12-29T17:37:02;21.50;43.40
67820;DHT22;54618;52.018;5.576;2022-12-29T17:39:28;21.50;43.60
67820;DHT22;54618;52.018;5.576;2022-12-29T17:41:54;21.40;43.60
67820;DHT22;54618;52.018;5.576;2022-12-29T17:44:20;21.30;43.70
67820;DHT22;54618;52.018;5.576;2022-12-29T17:46:47;21.30;43.80
67820;DHT22;54618;52.018;5.576;2022-12-29T17:49:15;21.20;43.90
67820;DHT22;54618;52.018;5.576;2022-12-29T17:51:43;21.10;43.90
67820;DHT22;54618;52.018;5.576;2022-12-29T17:54:20;21.10;43.90
67820;DHT22;54618;52.018;5.576;2022-12-29T17:56:46;21.00;44.40